Time;durP1;ratioP1;P1;durP2;ratioP2;P2;SDS_P1;SDS_P2;PMS_P1;PMS_P2;Temp;Humidity;BMP_temperature;BMP_pressure;BME280_temperature;BME280_humidity;BME280_pressure;Samples;Min_cycle;Max_cycle;Signal;HPM_P1;HPM_P2
2024/01/18 00:02:22;;;;;;;0.50;0.50;;;0.30;99.90;;;;;;4407084;32;20505;-67
2024/01/18 00:04:49;;;;;;;0.40;0.40;;;0.40;99.90;;;;;;4407842;32;20136;-67
2024/01/18 00:07:14;;;;;;;1.00;1.00;;;0.40;99.90;;;;;;4405831;32;20536;-67
2024/01/18 00:09:39;;;;;;;1.98;1.52;;;0.40;99.90;;;;;;4406867;32;20158;-67
2024/01/18 00:12:05;;;;;;;0.60;0.60;;;0.40;99.90;;;;;;4405692;32;20627;-67
2024/01/18 00:14:32;;;;;;;0.62;0.62;;;0.30;99.90;;;;;;4406993;32;20121;-66
2024/01/18 00:16:57;;;;;;;0.75;0.75;;;0.30;99.90;;;;;;4405440;32;20081;-67
2024/01/18 00:19:23;;;;;;;1.27;1.15;;;0.30;99.90;;;;;;4406327;32;20097;-66
2024/01/18 00:21:48;;;;;;;0.40;0.40;;;0.20;99.90;;;;;;4405844;32;20086;-66
2024/01/18 00:24:14;;;;;;;0.95;0.95;;;0.10;99.90;;;;;;4405922;32;20152;-65
2024/01/18 00:26:39;;;;;;;1.33;1.17;;;0.20;99.90;;;;;;4406394;32;20698;-66
2024/01/18 00:29:05;;;;;;;1.20;1.17;;;0.10;99.90;;;;;;4404570;32;20081;-66
2024/01/18 00:31:30;;;;;;;0.57;0.57;;;0.00;99.90;;;;;;4403018;32;20564;-66
2024/01/18 00:33:58;;;;;;;0.50;0.50;;;0.00;99.90;;;;;;4405081;32;20162;-66
2024/01/18 00:36:24;;;;;;;0.77;0.77;;;0.00;99.90;;;;;;4406642;32;20076;-65
2024/01/18 00:38:50;;;;;;;0.68;0.68;;;0.10;99.90;;;;;;4404521;32;20443;-66
2024/01/18 00:41:15;;;;;;;0.65;0.65;;;0.10;99.90;;;;;;4405665;32;20120;-67
2024/01/18 00:43:41;;;;;;;0.50;0.50;;;0.10;99.90;;;;;;4405304;32;20090;-65
2024/01/18 00:46:06;;;;;;;0.90;0.90;;;0.10;99.90;;;;;;4405362;32;20058;-67
2024/01/18 00:48:32;;;;;;;3.28;0.88;;;0.10;99.90;;;;;;4404555;32;20584;-66
2024/01/18 00:50:58;;;;;;;0.88;0.88;;;0.20;99.90;;;;;;4402983;32;20144;-67
2024/01/18 00:53:23;;;;;;;1.35;1.30;;;0.20;99.90;;;;;;4402336;32;20735;-67
2024/01/18 00:55:49;;;;;;;2.35;1.55;;;0.20;99.90;;;;;;4403000;32;20564;-66
2024/01/18 00:58:14;;;;;;;1.45;1.35;;;0.20;99.90;;;;;;4400672;32;20110;-65
2024/01/18 01:00:40;;;;;;;0.65;0.65;;;0.20;99.90;;;;;;4402810;32;20077;-67
2024/01/18 01:03:06;;;;;;;0.50;0.50;;;0.20;99.90;;;;;;4402807;32;20703;-66
2024/01/18 01:05:31;;;;;;;1.12;1.02;;;0.20;99.90;;;;;;4404818;32;20201;-67
2024/01/18 01:07:57;;;;;;;1.27;1.17;;;0.00;99.90;;;;;;4402545;32;20086;-67
2024/01/18 01:10:22;;;;;;;0.70;0.70;;;0.10;99.90;;;;;;4402322;32;20081;-67
2024/01/18 01:12:48;;;;;;;2.12;1.35;;;0.10;99.90;;;;;;4402193;32;20439;-65
2024/01/18 01:15:13;;;;;;;2.05;1.48;;;0.20;99.90;;;;;;4404777;32;20132;-67
2024/01/18 01:17:39;;;;;;;0.45;0.45;;;0.10;99.90;;;;;;4404548;32;20084;-66
2024/01/18 01:20:06;;;;;;;0.60;0.60;;;0.00;99.90;;;;;;4402731;32;20086;-67
2024/01/18 01:22:32;;;;;;;0.50;0.50;;;0.10;99.90;;;;;;4402741;32;20066;-65
2024/01/18 01:24:57;;;;;;;0.60;0.60;;;0.00;99.90;;;;;;4402300;32;22058;-65
2024/01/18 01:27:23;;;;;;;0.50;0.50;;;0.10;99.90;;;;;;4402512;32;20090;-66
2024/01/18 01:29:48;;;;;;;1.08;0.98;;;0.00;99.90;;;;;;4402972;32;20073;-66
2024/01/18 01:32:14;;;;;;;1.02;1.02;;;0.00;99.90;;;;;;4405683;32;20145;-67
2024/01/18 01:34:39;;;;;;;1.60;1.10;;;0.00;99.90;;;;;;4404830;32;20411;-66
2024/01/18 01:37:06;;;;;;;0.75;0.75;;;0.00;99.90;;;;;;4406320;32;20536;-62
2024/01/18 01:39:31;;;;;;;0.47;0.47;;;0.00;99.90;;;;;;4402162;32;20133;-63
2024/01/18 01:41:57;;;;;;;1.67;1.58;;;0.00;99.90;;;;;;4405144;32;20537;-62
2024/01/18 01:44:22;;;;;;;0.90;0.90;;;0.10;99.90;;;;;;4405593;32;20439;-65
2024/01/18 01:46:48;;;;;;;0.40;0.40;;;0.10;99.90;;;;;;4405428;32;21159;-62
2024/01/18 01:49:13;;;;;;;0.65;0.65;;;0.10;99.90;;;;;;4406199;32;20157;-65
2024/01/18 01:51:48;;;;;;;0.82;0.82;;;0.10;99.90;;;;;;4403419;32;20070;-62
2024/01/18 01:54:14;;;;;;;0.88;0.88;;;0.00;99.90;;;;;;4406073;32;20077;-65
2024/01/18 01:56:41;;;;;;;0.65;0.65;;;0.10;99.90;;;;;;4405437;32;20508;-65
2024/01/18 01:59:10;;;;;;;0.50;0.50;;;0.00;99.90;;;;;;4405974;32;20957;-63
2024/01/18 02:01:37;;;;;;;0.50;0.50;;;0.00;99.90;;;;;;4406221;32;20066;-63
2024/01/18 02:04:03;;;;;;;0.55;0.55;;;-0.10;99.90;;;;;;4404950;32;20077;-65
2024/01/18 02:06:30;;;;;;;0.40;0.40;;;-0.10;99.90;;;;;;4403934;32;20515;-65
2024/01/18 02:08:56;;;;;;;0.55;0.55;;;-0.10;99.90;;;;;;4402986;32;20128;-65
2024/01/18 02:11:21;;;;;;;0.57;0.57;;;0.00;99.90;;;;;;4404251;32;20529;-64
2024/01/18 02:13:48;;;;;;;0.50;0.50;;;-0.10;99.90;;;;;;4405845;32;20548;-62
2024/01/18 02:16:13;;;;;;;0.70;0.70;;;0.00;99.90;;;;;;4403467;32;20081;-66
2024/01/18 02:18:39;;;;;;;0.52;0.52;;;-0.10;99.90;;;;;;4405144;32;20093;-62
2024/01/18 02:21:07;;;;;;;0.60;0.60;;;-0.10;99.90;;;;;;4405769;32;20141;-64
2024/01/18 02:23:34;;;;;;;0.40;0.40;;;0.00;99.90;;;;;;4406269;32;20087;-62
2024/01/18 02:26:00;;;;;;;1.50;1.00;;;0.00;99.90;;;;;;4405056;32;20077;-63
2024/01/18 02:28:25;;;;;;;4.55;1.75;;;0.00;99.90;;;;;;4404277;32;20124;-63
2024/01/18 02:30:51;;;;;;;0.40;0.40;;;0.00;99.90;;;;;;4403409;32;20103;-62
2024/01/18 02:33:16;;;;;;;0.98;0.98;;;0.00;99.90;;;;;;4404153;32;20533;-64
2024/01/18 02:35:42;;;;;;;0.85;0.85;;;-0.10;99.90;;;;;;4404351;32;20089;-63
2024/01/18 02:38:07;;;;;;;1.27;1.17;;;-0.10;99.90;;;;;;4403944;32;20107;-63
2024/01/18 02:40:33;;;;;;;0.70;0.70;;;-0.10;99.90;;;;;;4403943;32;20581;-62
2024/01/18 02:42:59;;;;;;;0.50;0.50;;;-0.10;99.90;;;;;;4404873;32;20097;-64
2024/01/18 02:45:24;;;;;;;0.75;0.75;;;-0.20;99.90;;;;;;4403118;32;20101;-63
2024/01/18 02:47:50;;;;;;;0.60;0.60;;;-0.20;99.90;;;;;;4403639;32;20066;-63
2024/01/18 02:50:15;;;;;;;0.98;0.98;;;-0.10;99.90;;;;;;4403372;32;21156;-65
2024/01/18 02:52:41;;;;;;;1.98;1.77;;;-0.10;99.90;;;;;;4403089;32;20064;-64
2024/01/18 02:55:07;;;;;;;0.60;0.60;;;-0.20;99.90;;;;;;4403806;32;20090;-63
2024/01/18 02:57:33;;;;;;;0.40;0.40;;;-0.10;99.90;;;;;;4404284;32;20246;-64
2024/01/18 02:59:58;;;;;;;0.75;0.75;;;-0.10;99.90;;;;;;4402914;32;20572;-62
2024/01/18 03:02:24;;;;;;;0.50;0.50;;;-0.10;99.90;;;;;;4403652;32;21328;-63
2024/01/18 03:04:49;;;;;;;0.40;0.40;;;-0.10;99.90;;;;;;4405648;32;20077;-65
2024/01/18 03:07:15;;;;;;;1.02;1.02;;;-0.20;99.90;;;;;;4404753;32;20132;-62
2024/01/18 03:09:40;;;;;;;1.45;1.33;;;-0.10;99.90;;;;;;4403166;32;20081;-63
2024/01/18 03:12:06;;;;;;;0.45;0.45;;;-0.10;99.90;;;;;;4404403;32;20084;-62
2024/01/18 03:14:31;;;;;;;0.95;0.95;;;-0.10;99.90;;;;;;4406465;32;20085;-63
2024/01/18 03:16:57;;;;;;;1.45;1.05;;;0.00;99.90;;;;;;4404521;32;21071;-62
2024/01/18 03:19:22;;;;;;;0.62;0.62;;;-0.10;99.90;;;;;;4404183;32;20089;-62
2024/01/18 03:21:47;;;;;;;0.70;0.70;;;-0.10;99.90;;;;;;4403932;32;20133;-66
2024/01/18 03:24:13;;;;;;;7.95;1.77;;;-0.10;99.90;;;;;;4403170;32;20797;-65
2024/01/18 03:26:38;;;;;;;0.75;0.75;;;-0.10;99.90;;;;;;4404285;32;20086;-64
2024/01/18 03:29:05;;;;;;;1.35;0.65;;;-0.10;99.90;;;;;;4402979;32;20541;-62
2024/01/18 03:31:30;;;;;;;0.50;0.50;;;-0.20;99.90;;;;;;4402328;32;20065;-64
2024/01/18 03:33:56;;;;;;;1.23;1.12;;;-0.30;99.90;;;;;;4401927;32;20077;-63
2024/01/18 03:36:21;;;;;;;0.40;0.40;;;-0.30;99.90;;;;;;4403761;32;20402;-64
2024/01/18 03:38:47;;;;;;;0.73;0.73;;;-0.20;99.90;;;;;;4402241;32;20148;-63
2024/01/18 03:41:15;;;;;;;2.87;2.05;;;-0.30;99.90;;;;;;4404179;32;20073;-66
2024/01/18 03:43:40;;;;;;;0.65;0.65;;;-0.10;99.90;;;;;;4403913;32;20077;-62
2024/01/18 03:46:05;;;;;;;2.28;1.27;;;-0.10;99.90;;;;;;4405234;32;20424;-64
2024/01/18 03:48:31;;;;;;;0.45;0.45;;;-0.10;99.90;;;;;;4403647;32;20097;-62
2024/01/18 03:50:56;;;;;;;0.50;0.50;;;-0.20;99.90;;;;;;4404696;32;20116;-63
2024/01/18 03:53:22;;;;;;;0.50;0.50;;;-0.20;99.90;;;;;;4403166;32;20547;-63
2024/01/18 03:55:47;;;;;;;0.85;0.75;;;-0.20;99.90;;;;;;4404234;32;20061;-64
2024/01/18 03:58:13;;;;;;;1.08;1.02;;;-0.30;99.90;;;;;;4402065;32;20082;-63
2024/01/18 04:00:39;;;;;;;0.85;0.85;;;-0.30;99.90;;;;;;4402143;32;20085;-64
2024/01/18 04:03:05;;;;;;;0.40;0.40;;;-0.30;99.90;;;;;;4404260;32;20140;-65
2024/01/18 04:05:31;;;;;;;0.73;0.73;;;-0.30;99.90;;;;;;4404873;32;20077;-64
2024/01/18 04:07:56;;;;;;;0.57;0.57;;;-0.30;99.90;;;;;;4402697;32;20106;-62
2024/01/18 04:10:22;;;;;;;2.47;1.23;;;-0.40;99.90;;;;;;4403396;32;20081;-62
2024/01/18 04:12:47;;;;;;;0.55;0.55;;;-0.30;99.90;;;;;;4404547;32;20501;-64
2024/01/18 04:15:13;;;;;;;0.55;0.55;;;-0.20;99.90;;;;;;4403537;32;20125;-64
2024/01/18 04:17:38;;;;;;;1.40;1.30;;;-0.20;99.90;;;;;;4402563;32;20093;-63
2024/01/18 04:20:06;;;;;;;0.95;0.95;;;-0.30;99.90;;;;;;4404512;32;20095;-65
2024/01/18 04:22:32;;;;;;;0.50;0.50;;;-0.30;99.90;;;;;;4404494;32;20061;-65
2024/01/18 04:24:58;;;;;;;0.88;0.88;;;-0.40;99.90;;;;;;4404592;32;20077;-62
2024/01/18 04:27:24;;;;;;;0.50;0.50;;;-0.40;99.90;;;;;;4402561;32;20541;-62
2024/01/18 04:29:50;;;;;;;1.05;0.93;;;-0.30;99.90;;;;;;4400959;32;20463;-62
2024/01/18 04:32:15;;;;;;;0.73;0.73;;;-0.30;99.90;;;;;;4403603;32;20088;-62
2024/01/18 04:34:42;;;;;;;0.57;0.57;;;-0.30;99.90;;;;;;4401198;32;20078;-64
2024/01/18 04:37:08;;;;;;;0.50;0.50;;;-0.20;99.90;;;;;;4402827;32;20102;-66
2024/01/18 04:39:33;;;;;;;0.62;0.62;;;-0.20;99.90;;;;;;4401506;32;20120;-64
2024/01/18 04:41:59;;;;;;;0.85;0.85;;;-0.20;99.90;;;;;;4403619;32;20741;-62
2024/01/18 04:44:24;;;;;;;0.50;0.50;;;-0.20;99.90;;;;;;4404955;32;20101;-63
2024/01/18 04:46:50;;;;;;;0.50;0.50;;;-0.40;99.90;;;;;;4401438;32;20443;-64
2024/01/18 04:49:15;;;;;;;1.85;0.95;;;-0.30;99.90;;;;;;4401289;32;20076;-62
2024/01/18 04:51:41;;;;;;;1.25;1.17;;;-0.30;99.90;;;;;;4402374;32;20085;-63
2024/01/18 04:54:06;;;;;;;0.80;0.80;;;-0.30;99.90;;;;;;4403619;32;20080;-64
2024/01/18 04:56:35;;;;;;;0.50;0.50;;;-0.30;99.90;;;;;;4402645;32;20094;-61
2024/01/18 04:59:00;;;;;;;0.80;0.80;;;-0.50;99.90;;;;;;4402713;32;20128;-65
2024/01/18 05:01:26;;;;;;;1.00;1.00;;;-0.50;99.90;;;;;;4389685;32;20128;-62
2024/01/18 05:03:51;;;;;;;0.50;0.50;;;-0.50;99.90;;;;;;4406937;32;20097;-63
2024/01/18 05:06:17;;;;;;;0.40;0.40;;;-0.60;99.90;;;;;;4407788;32;20069;-65
2024/01/18 05:08:45;;;;;;;0.47;0.47;;;-0.70;99.90;;;;;;4406607;32;20538;-65
2024/01/18 05:11:11;;;;;;;0.60;0.60;;;-0.60;99.90;;;;;;4408131;32;20085;-65
2024/01/18 05:13:36;;;;;;;2.03;1.08;;;-0.70;99.90;;;;;;4408075;32;20090;-65
2024/01/18 05:16:02;;;;;;;6.47;2.80;;;-0.60;99.90;;;;;;4407461;32;20446;-65
2024/01/18 05:18:27;;;;;;;2.85;1.70;;;-0.60;99.90;;;;;;4407699;32;20127;-65
2024/01/18 05:20:53;;;;;;;0.68;0.68;;;-0.40;99.90;;;;;;4402611;32;20086;-65
2024/01/18 05:23:19;;;;;;;0.50;0.50;;;-0.50;99.90;;;;;;4406991;32;20074;-65
2024/01/18 05:25:44;;;;;;;18.10;1.25;;;-0.40;99.90;;;;;;4408433;32;20124;-65
2024/01/18 05:28:10;;;;;;;0.62;0.62;;;-0.50;99.90;;;;;;4407852;32;20061;-65
2024/01/18 05:30:35;;;;;;;1.08;0.98;;;-0.50;99.90;;;;;;4407108;32;20074;-65
2024/01/18 05:33:00;;;;;;;0.47;0.47;;;-0.50;99.90;;;;;;4407397;32;20069;-65
2024/01/18 05:35:26;;;;;;;0.80;0.80;;;-0.50;99.90;;;;;;4404735;32;20577;-65
2024/01/18 05:37:51;;;;;;;9.13;1.48;;;-0.50;99.90;;;;;;4401189;32;20085;-65
2024/01/18 05:40:17;;;;;;;0.50;0.50;;;-0.30;99.90;;;;;;4403949;32;20093;-65
2024/01/18 05:42:43;;;;;;;1.40;0.85;;;-0.30;99.90;;;;;;4404161;32;20183;-65
2024/01/18 05:45:09;;;;;;;0.50;0.50;;;-0.50;99.90;;;;;;4407297;32;20127;-65
2024/01/18 05:47:35;;;;;;;0.85;0.85;;;-0.50;99.90;;;;;;4405046;32;20129;-65
2024/01/18 05:50:01;;;;;;;0.40;0.40;;;-0.50;99.90;;;;;;4406759;32;20141;-65
2024/01/18 05:52:29;;;;;;;0.88;0.88;;;-0.40;99.90;;;;;;4395703;32;20082;-65
2024/01/18 05:54:54;;;;;;;0.60;0.60;;;-0.50;99.90;;;;;;4402346;32;20573;-65
2024/01/18 05:57:19;;;;;;;0.60;0.60;;;-0.60;99.90;;;;;;4405026;32;20120;-64
2024/01/18 05:59:45;;;;;;;0.43;0.43;;;-0.60;99.90;;;;;;4403634;32;20093;-64
2024/01/18 06:02:10;;;;;;;1.17;1.12;;;-0.60;99.90;;;;;;4404251;32;20073;-65
2024/01/18 06:04:36;;;;;;;4.93;1.50;;;-0.60;99.90;;;;;;4402981;32;20094;-65
2024/01/18 06:07:01;;;;;;;1.12;1.12;;;-0.60;99.90;;;;;;4392788;32;20560;-65
2024/01/18 06:09:27;;;;;;;0.68;0.68;;;-0.60;99.90;;;;;;4398458;32;20085;-64
2024/01/18 06:11:54;;;;;;;0.68;0.68;;;-0.60;99.90;;;;;;4404781;32;20077;-65
2024/01/18 06:14:20;;;;;;;1.02;0.95;;;-0.60;99.90;;;;;;4395238;32;20144;-65
2024/01/18 06:16:47;;;;;;;0.50;0.50;;;-0.60;99.90;;;;;;4405903;32;20085;-65
2024/01/18 06:19:12;;;;;;;3.10;1.02;;;-0.60;99.90;;;;;;4402080;32;20118;-65
2024/01/18 06:21:38;;;;;;;0.57;0.57;;;-0.50;99.90;;;;;;4396173;32;20315;-67
2024/01/18 06:24:04;;;;;;;1.05;0.95;;;-0.60;99.90;;;;;;4401443;32;20152;-65
2024/01/18 06:26:29;;;;;;;0.50;0.50;;;-0.50;99.90;;;;;;4388135;32;20148;-67
2024/01/18 06:28:56;;;;;;;0.45;0.45;;;-0.50;99.90;;;;;;4389674;32;20098;-66
2024/01/18 06:31:27;;;;;;;7.12;2.42;;;-0.70;99.90;;;;;;4402102;32;20526;-66
2024/01/18 06:33:53;;;;;;;2.03;0.88;;;-0.60;99.90;;;;;;4399066;32;20066;-65
2024/01/18 06:36:19;;;;;;;1.12;0.93;;;-0.60;99.90;;;;;;4400051;32;20081;-65
2024/01/18 06:38:45;;;;;;;0.62;0.62;;;-0.60;99.90;;;;;;4403481;32;20136;-66
2024/01/18 06:41:11;;;;;;;1.02;0.93;;;-0.60;99.90;;;;;;4401431;32;20116;-66
2024/01/18 06:43:37;;;;;;;0.60;0.60;;;-0.60;99.90;;;;;;4401478;32;20073;-65
2024/01/18 06:46:03;;;;;;;1.55;1.17;;;-0.60;99.90;;;;;;4404013;32;20112;-64
2024/01/18 06:48:28;;;;;;;2.00;1.65;;;-0.60;99.90;;;;;;4393088;32;20583;-65
2024/01/18 06:50:53;;;;;;;0.55;0.55;;;-0.60;99.90;;;;;;4392028;32;20101;-63
2024/01/18 06:53:19;;;;;;;0.65;0.65;;;-0.50;99.90;;;;;;4389023;32;20161;-65
2024/01/18 06:55:45;;;;;;;1.00;1.00;;;-0.50;99.90;;;;;;4390152;32;20943;-66
2024/01/18 06:58:10;;;;;;;0.70;0.70;;;-0.50;99.90;;;;;;4387017;32;20106;-64
2024/01/18 07:00:36;;;;;;;0.50;0.50;;;-0.40;99.90;;;;;;4369213;32;20240;-66
2024/01/18 07:03:01;;;;;;;0.65;0.65;;;-0.40;99.90;;;;;;4368752;32;20074;-64
2024/01/18 07:05:27;;;;;;;0.60;0.60;;;-0.50;99.90;;;;;;4377514;32;20110;-65
2024/01/18 07:07:52;;;;;;;0.50;0.50;;;-0.40;99.90;;;;;;4381437;32;20492;-66
2024/01/18 07:10:20;;;;;;;0.52;0.52;;;-0.40;99.90;;;;;;4371815;32;20081;-65
2024/01/18 07:12:47;;;;;;;0.40;0.40;;;-0.40;99.90;;;;;;4378673;32;20740;-65
2024/01/18 07:15:13;;;;;;;1.85;1.17;;;-0.40;99.90;;;;;;4382239;32;20619;-65
2024/01/18 07:17:39;;;;;;;0.70;0.70;;;-0.40;99.90;;;;;;4380774;32;20601;-65
2024/01/18 07:20:05;;;;;;;0.98;0.98;;;-0.40;99.90;;;;;;4373054;32;20969;-65
2024/01/18 07:22:30;;;;;;;0.73;0.73;;;-0.40;99.90;;;;;;4369793;32;20098;-66
2024/01/18 07:24:56;;;;;;;0.40;0.40;;;-0.50;99.90;;;;;;4379274;32;20595;-65
2024/01/18 07:27:22;;;;;;;0.52;0.52;;;-0.50;99.90;;;;;;4358073;32;20402;-63
2024/01/18 07:29:49;;;;;;;1.02;0.98;;;-0.50;99.90;;;;;;4355230;32;20152;-65
2024/01/18 07:32:15;;;;;;;0.57;0.57;;;-0.60;99.90;;;;;;4374495;32;21032;-64
2024/01/18 07:34:40;;;;;;;0.40;0.40;;;-0.70;99.90;;;;;;4371973;32;21997;-63
2024/01/18 07:37:08;;;;;;;0.88;0.88;;;-0.70;99.90;;;;;;4394161;32;20088;-62
2024/01/18 07:39:33;;;;;;;0.57;0.57;;;-0.60;99.90;;;;;;4393277;32;20172;-63
2024/01/18 07:42:00;;;;;;;0.57;0.57;;;-0.70;99.90;;;;;;4390899;32;20093;-64
2024/01/18 07:44:26;;;;;;;4.85;1.15;;;-0.70;99.90;;;;;;4391338;32;20081;-64
2024/01/18 07:46:52;;;;;;;0.80;0.80;;;-0.60;99.90;;;;;;4394722;32;20065;-63
2024/01/18 07:49:17;;;;;;;0.50;0.50;;;-0.70;99.90;;;;;;4399567;32;20082;-63
2024/01/18 07:51:43;;;;;;;1.05;0.73;;;-0.60;99.90;;;;;;4390415;32;20250;-64
2024/01/18 07:54:09;;;;;;;0.68;0.68;;;-0.70;99.90;;;;;;4398661;32;20106;-64
2024/01/18 07:56:35;;;;;;;1.17;1.17;;;-0.70;99.90;;;;;;4392176;32;21322;-63
2024/01/18 07:59:00;;;;;;;1.30;0.82;;;-0.70;99.90;;;;;;4372728;32;20167;-63
2024/01/18 12:36:52;;;;;;;4.65;1.45;;;0.70;99.90;;;;;;4952294;27;20104;-76
2024/01/18 12:39:19;;;;;;;0.40;0.40;;;0.80;99.90;;;;;;4386708;32;21628;-76
2024/01/18 12:41:49;;;;;;;1.12;1.08;;;0.90;99.90;;;;;;4379349;32;20142;-76
2024/01/18 12:44:15;;;;;;;2.28;1.30;;;1.00;99.90;;;;;;4392175;32;20186;-75
2024/01/18 12:46:41;;;;;;;2.25;1.15;;;1.10;99.90;;;;;;4394885;32;20101;-76
2024/01/18 12:49:07;;;;;;;0.52;0.52;;;1.40;99.90;;;;;;4395594;32;20101;-77
2024/01/18 12:51:34;;;;;;;0.50;0.50;;;1.70;99.90;;;;;;4402757;32;20086;-81
2024/01/18 12:54:00;;;;;;;1.08;1.08;;;2.10;99.90;;;;;;4406981;32;20640;-80
2024/01/18 12:56:27;;;;;;;0.50;0.50;;;2.50;99.90;;;;;;4403413;32;20093;-81
2024/01/18 12:58:52;;;;;;;0.80;0.80;;;2.50;99.90;;;;;;4398313;32;20085;-82
2024/01/18 13:01:27;;;;;;;1.30;0.95;;;2.80;99.90;;;;;;4404842;32;20097;-77
2024/01/18 13:04:12;;;;;;;2.97;1.27;;;3.00;99.90;;;;;;4408228;32;20070;-77
2024/01/18 13:06:43;;;;;;;1.55;0.90;;;3.00;99.90;;;;;;4404699;32;20145;-76
2024/01/18 13:09:10;;;;;;;1.85;1.60;;;2.70;99.90;;;;;;4407112;32;20101;-76
2024/01/18 13:11:36;;;;;;;1.55;1.45;;;2.90;99.90;;;;;;4401808;32;20077;-75
2024/01/18 13:14:05;;;;;;;0.73;0.73;;;3.20;99.90;;;;;;4406061;32;20081;-76
2024/01/18 13:16:32;;;;;;;0.77;0.77;;;3.50;99.90;;;;;;4402995;32;20105;-76
2024/01/18 13:19:00;;;;;;;0.65;0.65;;;3.40;99.90;;;;;;4406881;32;20551;-75
2024/01/18 13:21:26;;;;;;;0.40;0.40;;;3.20;99.90;;;;;;4408581;32;20140;-76
2024/01/18 13:23:51;;;;;;;1.73;1.40;;;2.80;99.90;;;;;;4403721;32;20247;-75
2024/01/18 13:26:17;;;;;;;0.93;0.93;;;2.50;99.90;;;;;;4407920;32;20077;-76
2024/01/18 13:28:42;;;;;;;1.00;0.75;;;2.50;99.90;;;;;;4411587;32;20093;-75
2024/01/18 13:31:09;;;;;;;1.65;1.00;;;2.50;99.90;;;;;;4403920;32;20103;-77
2024/01/18 13:33:35;;;;;;;4.07;0.80;;;2.30;99.90;;;;;;4408062;32;20089;-76
2024/01/18 13:36:00;;;;;;;0.75;0.75;;;2.30;99.90;;;;;;4412926;32;20081;-77
2024/01/18 13:38:26;;;;;;;4.07;1.87;;;2.40;99.90;;;;;;4393862;32;20077;-76
2024/01/18 13:40:53;;;;;;;1.75;0.75;;;2.30;99.90;;;;;;4393374;32;20073;-77
2024/01/18 13:43:19;;;;;;;0.47;0.47;;;2.30;99.90;;;;;;4400057;32;21398;-77
2024/01/18 13:45:45;;;;;;;0.62;0.62;;;2.20;99.90;;;;;;4400581;32;20098;-77
2024/01/18 13:48:10;;;;;;;0.80;0.65;;;2.10;99.90;;;;;;4397043;32;20097;-78
2024/01/18 13:50:36;;;;;;;0.75;0.75;;;2.10;99.90;;;;;;4400914;32;20128;-77
2024/01/18 13:53:03;;;;;;;1.17;1.05;;;2.20;99.90;;;;;;4402556;32;20435;-78
2024/01/18 13:55:29;;;;;;;2.17;1.77;;;2.20;99.90;;;;;;4399591;32;20507;-75
2024/01/18 13:57:54;;;;;;;1.10;1.05;;;2.10;99.90;;;;;;4402602;32;20078;-77
2024/01/18 14:00:20;;;;;;;0.40;0.40;;;2.00;99.90;;;;;;4404909;32;20120;-77
2024/01/18 14:02:46;;;;;;;1.00;0.93;;;1.90;99.90;;;;;;4403648;32;20082;-77
2024/01/18 14:05:11;;;;;;;13.95;1.30;;;1.80;99.90;;;;;;4400892;32;20820;-77
2024/01/18 14:07:37;;;;;;;2.15;1.70;;;1.80;99.90;;;;;;4399095;32;20089;-77
2024/01/18 14:10:03;;;;;;;0.50;0.50;;;1.80;99.90;;;;;;4398544;32;20101;-77
2024/01/18 14:12:29;;;;;;;0.57;0.57;;;1.70;99.90;;;;;;4400681;32;20073;-77
2024/01/18 14:14:55;;;;;;;0.70;0.70;;;1.60;99.90;;;;;;4400357;32;20202;-77
2024/01/18 14:17:20;;;;;;;0.47;0.47;;;1.60;99.90;;;;;;4402015;32;20100;-77
2024/01/18 14:19:46;;;;;;;0.70;0.70;;;1.50;99.90;;;;;;4400691;32;20093;-77
2024/01/18 14:22:11;;;;;;;0.93;0.93;;;1.50;99.90;;;;;;4401087;32;20127;-77
2024/01/18 14:24:36;;;;;;;0.70;0.70;;;1.50;99.90;;;;;;4402960;32;20073;-76
2024/01/18 14:27:02;;;;;;;0.73;0.73;;;1.50;99.90;;;;;;4403434;32;20135;-76
2024/01/18 14:29:28;;;;;;;0.50;0.50;;;1.50;99.90;;;;;;4402039;32;20101;-76
2024/01/18 14:31:54;;;;;;;0.80;0.80;;;1.40;99.90;;;;;;4400648;32;20512;-76
2024/01/18 14:34:20;;;;;;;1.33;1.23;;;1.30;99.90;;;;;;4402970;32;20079;-76
2024/01/18 14:36:46;;;;;;;0.70;0.70;;;1.20;99.90;;;;;;4403216;32;20237;-77
2024/01/18 14:39:15;;;;;;;0.52;0.45;;;1.20;99.90;;;;;;4401061;32;20077;-77
2024/01/18 14:41:41;;;;;;;2.00;1.60;;;1.10;99.90;;;;;;4402417;32;20094;-77
2024/01/18 14:44:06;;;;;;;0.43;0.43;;;1.10;99.90;;;;;;4402729;32;20073;-77
2024/01/18 14:46:32;;;;;;;0.50;0.50;;;1.00;99.90;;;;;;4399133;32;20073;-78
2024/01/18 14:48:59;;;;;;;0.75;0.75;;;0.90;99.90;;;;;;4399989;32;20133;-77
2024/01/18 14:51:25;;;;;;;0.40;0.40;;;0.90;99.90;;;;;;4401491;32;20656;-77
2024/01/18 14:53:50;;;;;;;0.85;0.85;;;0.90;99.90;;;;;;4405061;32;20604;-78
2024/01/18 14:56:16;;;;;;;0.80;0.80;;;0.90;99.90;;;;;;4405683;32;20077;-76
2024/01/18 14:58:42;;;;;;;0.45;0.45;;;0.90;99.90;;;;;;4403039;32;20065;-77
2024/01/18 15:01:08;;;;;;;1.48;1.37;;;0.80;99.90;;;;;;4403687;32;20062;-76
2024/01/18 15:03:33;;;;;;;0.70;0.70;;;0.80;99.90;;;;;;4408585;32;20070;-77
2024/01/18 15:05:59;;;;;;;0.95;0.95;;;0.70;99.90;;;;;;4407400;32;20128;-77
2024/01/18 15:08:24;;;;;;;0.60;0.60;;;0.60;99.90;;;;;;4406766;32;20093;-78
2024/01/18 15:10:50;;;;;;;0.43;0.43;;;0.60;99.90;;;;;;4413119;32;20085;-81
2024/01/18 15:13:18;;;;;;;1.15;0.80;;;0.70;99.90;;;;;;4408240;32;20564;-80
2024/01/18 15:15:45;;;;;;;1.27;1.17;;;0.70;99.90;;;;;;4407348;32;20069;-81
2024/01/18 15:18:11;;;;;;;0.62;0.62;;;0.70;99.90;;;;;;4406573;32;20085;-80
2024/01/18 15:20:36;;;;;;;0.82;0.82;;;0.70;99.90;;;;;;4410494;32;20415;-81
2024/01/18 15:23:04;;;;;;;0.43;0.43;;;0.70;99.90;;;;;;4411825;32;20088;-81
2024/01/18 15:25:30;;;;;;;1.48;1.37;;;0.60;99.90;;;;;;4412117;32;20073;-80
2024/01/18 15:27:55;;;;;;;1.35;1.27;;;0.50;99.90;;;;;;4405620;32;20589;-79
2024/01/18 15:30:20;;;;;;;0.60;0.60;;;0.50;99.90;;;;;;4411511;32;20131;-76
2024/01/18 15:32:47;;;;;;;1.12;1.02;;;0.40;99.90;;;;;;4388118;32;20268;-77
2024/01/18 15:35:13;;;;;;;0.93;0.93;;;0.40;99.90;;;;;;4395630;32;20074;-78
2024/01/18 15:37:38;;;;;;;0.40;0.40;;;0.30;99.90;;;;;;4409030;32;20422;-77
2024/01/18 15:40:05;;;;;;;0.70;0.70;;;0.30;99.90;;;;;;4406295;32;20562;-77
2024/01/18 15:42:31;;;;;;;1.05;0.90;;;0.30;99.90;;;;;;4410150;32;20070;-77
2024/01/18 15:44:56;;;;;;;1.50;1.40;;;0.40;99.90;;;;;;4411067;32;20081;-77
2024/01/18 15:47:22;;;;;;;0.45;0.45;;;0.30;99.90;;;;;;4410509;32;20081;-78
2024/01/18 15:49:47;;;;;;;1.12;1.08;;;0.30;99.90;;;;;;4409727;32;20152;-78
2024/01/18 15:52:13;;;;;;;1.65;1.40;;;0.30;99.90;;;;;;4411510;32;20078;-77
2024/01/18 15:54:39;;;;;;;0.50;0.50;;;0.30;99.90;;;;;;4411898;32;20077;-77
2024/01/18 15:57:06;;;;;;;0.55;0.55;;;0.30;99.90;;;;;;4413491;32;20536;-78
2024/01/18 15:59:32;;;;;;;0.90;0.90;;;0.20;99.90;;;;;;4412583;32;21292;-78
2024/01/18 16:01:57;;;;;;;1.55;1.30;;;0.20;99.90;;;;;;4417456;32;20443;-77
2024/01/18 16:04:23;;;;;;;0.50;0.50;;;0.20;99.90;;;;;;4411065;32;20073;-77
2024/01/18 16:06:48;;;;;;;0.60;0.60;;;0.10;99.90;;;;;;4411646;32;20140;-77
2024/01/18 16:09:15;;;;;;;1.12;1.12;;;0.10;99.90;;;;;;4412932;32;20129;-78
2024/01/18 16:11:40;;;;;;;0.47;0.47;;;0.10;99.90;;;;;;4411510;32;20911;-78
2024/01/18 16:14:06;;;;;;;0.80;0.75;;;0.10;99.90;;;;;;4412684;32;20090;-77
2024/01/18 16:16:31;;;;;;;0.60;0.60;;;0.10;99.90;;;;;;4410958;32;20506;-78
2024/01/18 16:18:57;;;;;;;0.65;0.65;;;0.00;99.90;;;;;;4410286;32;20081;-79
2024/01/18 16:21:26;;;;;;;0.52;0.52;;;-0.10;99.90;;;;;;4412077;32;20785;-76
2024/01/18 16:23:53;;;;;;;1.80;1.35;;;-0.10;99.90;;;;;;4413721;32;21028;-77
2024/01/18 16:26:19;;;;;;;1.05;1.00;;;-0.10;99.90;;;;;;4411479;32;20061;-78
2024/01/18 16:28:45;;;;;;;6.87;2.47;;;-0.20;99.90;;;;;;4410705;32;20208;-78
2024/01/18 16:31:10;;;;;;;0.47;0.47;;;-0.20;99.90;;;;;;4409454;32;20533;-77
2024/01/18 16:33:36;;;;;;;1.40;1.20;;;-0.30;99.90;;;;;;4411151;32;20092;-76
2024/01/18 16:36:01;;;;;;;1.25;1.17;;;-0.30;99.90;;;;;;4409573;32;20082;-78
2024/01/18 16:38:27;;;;;;;0.50;0.50;;;-0.30;99.90;;;;;;4411704;32;20089;-78
2024/01/18 16:40:52;;;;;;;0.50;0.50;;;-0.40;99.90;;;;;;4410669;32;20069;-76
2024/01/18 16:43:18;;;;;;;1.92;1.05;;;-0.40;99.90;;;;;;4411729;32;20077;-78
2024/01/18 16:45:44;;;;;;;0.40;0.40;;;-0.50;99.90;;;;;;4412281;32;20537;-79
2024/01/18 16:48:09;;;;;;;1.27;1.15;;;-0.50;99.90;;;;;;4411808;32;20081;-78
2024/01/18 16:50:35;;;;;;;0.77;0.77;;;-0.50;99.90;;;;;;4417303;32;20120;-79
2024/01/18 16:53:02;;;;;;;0.50;0.50;;;-0.50;99.90;;;;;;4414415;32;20520;-78
2024/01/18 16:55:29;;;;;;;0.40;0.40;;;-0.50;99.90;;;;;;4409159;32;20084;-78
2024/01/18 16:57:55;;;;;;;0.45;0.45;;;-0.50;99.90;;;;;;4413466;32;20066;-78
2024/01/18 17:00:22;;;;;;;0.55;0.55;;;-0.50;99.90;;;;;;4417779;32;20775;-79
2024/01/18 17:02:48;;;;;;;0.70;0.70;;;-0.60;99.90;;;;;;4419862;32;20124;-78
2024/01/18 17:05:14;;;;;;;1.00;1.00;;;-0.60;99.90;;;;;;4415964;32;20509;-78
2024/01/18 17:07:39;;;;;;;11.77;1.65;;;-0.60;99.90;;;;;;4415842;32;20215;-78
2024/01/18 17:10:06;;;;;;;0.90;0.90;;;-0.60;99.90;;;;;;4415553;32;20073;-78
2024/01/18 17:12:33;;;;;;;1.05;1.02;;;-0.70;99.90;;;;;;4417353;32;20443;-78
2024/01/18 17:14:59;;;;;;;3.53;1.87;;;-0.70;99.90;;;;;;4419305;32;20375;-79
2024/01/18 17:17:25;;;;;;;2.05;1.02;;;-0.70;99.90;;;;;;4416615;32;20070;-79
2024/01/18 17:19:51;;;;;;;0.40;0.40;;;-0.70;99.90;;;;;;4415655;32;20566;-78